Wetterdaten: Woche 19.09.05 - 25.09.05 (KW38)
Datum Zeit Temperatur Luftfeuchte Luftdruck Niederschlag Wind Richtung Sonne Solar Taupunkt Windchill
19.09.2005 00:00 9.7 C 62 % 1022.1 hPa 0.0 l/m 1.0 km/h (0 Bft) NO 0.00 h 0 W/m 2.8 C 9.6 C
19.09.2005 01:00 9.8 C 64 % 1021.4 hPa 0.0 l/m 1.8 km/h (1 Bft) O 0.00 h 0 W/m 3.3 C 9.6 C
19.09.2005 02:00 10.0 C 64 % 1021.3 hPa 0.0 l/m 2.1 km/h (1 Bft) NO 0.00 h 0 W/m 3.6 C 9.9 C
19.09.2005 03:00 10.0 C 65 % 1021.3 hPa 0.0 l/m 5.0 km/h (1 Bft) NO 0.00 h 0 W/m 3.8 C 9.9 C
19.09.2005 04:00 9.7 C 68 % 1021.0 hPa 0.0 l/m 2.8 km/h (1 Bft) O-NO 0.00 h 0 W/m 4.0 C 9.5 C
19.09.2005 05:00 9.7 C 68 % 1020.4 hPa 0.0 l/m 1.8 km/h (1 Bft) N-NO 0.00 h 0 W/m 4.1 C 9.6 C
19.09.2005 06:00 9.8 C 68 % 1020.5 hPa 0.0 l/m 2.3 km/h (1 Bft) O-NO 0.00 h 0 W/m 4.3 C 9.6 C
19.09.2005 07:00 9.8 C 70 % 1021.4 hPa 0.0 l/m 1.3 km/h (1 Bft) O 0.00 h 6 W/m 4.6 C 9.7 C
19.09.2005 08:00 9.9 C 70 % 1021.3 hPa 0.0 l/m 0.7 km/h (0 Bft) N-NO 0.00 h 42 W/m 4.6 C 9.8 C
19.09.2005 09:00 10.0 C 69 % 1021.3 hPa 0.0 l/m 1.4 km/h (1 Bft) O-SO 0.00 h 55 W/m 4.6 C 9.9 C
19.09.2005 10:00 10.2 C 70 % 1021.6 hPa 0.0 l/m 3.8 km/h (1 Bft) O-SO 0.00 h 89 W/m 5.1 C 10.2 C
19.09.2005 11:00 11.2 C 68 % 1021.7 hPa 0.0 l/m 6.2 km/h (2 Bft) O 0.00 h 210 W/m 5.5 C 11.2 C
19.09.2005 12:00 12.3 C 65 % 1021.5 hPa 0.0 l/m 5.2 km/h (1 Bft) NO 0.07 h 299 W/m 5.8 C 12.3 C
19.09.2005 13:00 13.0 C 62 % 1022.0 hPa 0.0 l/m 17.9 km/h (3 Bft) O-SO 0.13 h 338 W/m 5.9 C 13.0 C
19.09.2005 14:00 12.5 C 65 % 1022.0 hPa 0.0 l/m 13.9 km/h (3 Bft) O-SO 0.00 h 176 W/m 6.1 C 12.5 C
19.09.2005 15:00 12.5 C 65 % 1022.0 hPa 0.0 l/m 3.1 km/h (1 Bft) O-SO 0.00 h 183 W/m 6.2 C 12.5 C
19.09.2005 16:00 12.7 C 67 % 1022.0 hPa 0.0 l/m 2.0 km/h (1 Bft) O-SO 0.00 h 118 W/m 6.7 C 12.7 C
19.09.2005 17:00 12.4 C 70 % 1022.0 hPa 0.0 l/m 0.2 km/h (0 Bft) O-SO 0.00 h 50 W/m 7.0 C 12.4 C
19.09.2005 18:00 12.1 C 73 % 1022.1 hPa 0.0 l/m 0.0 km/h (0 Bft) N 0.00 h 18 W/m 7.4 C 12.1 C
19.09.2005 19:00 11.7 C 78 % 1022.1 hPa 0.0 l/m 1.2 km/h (1 Bft) O 0.00 h 5 W/m 8.1 C 11.7 C
19.09.2005 20:00 11.4 C 81 % 1022.4 hPa 0.0 l/m 0.6 km/h (0 Bft) O 0.00 h 0 W/m 8.2 C 11.4 C
19.09.2005 21:00 11.1 C 83 % 1023.3 hPa 0.0 l/m 0.3 km/h (0 Bft) O 0.00 h 0 W/m 8.2 C 11.1 C
19.09.2005 22:00 10.8 C 86 % 1023.3 hPa 0.0 l/m 0.0 km/h (0 Bft) N 0.00 h 0 W/m 8.6 C 10.8 C
19.09.2005 23:00 10.4 C 89 % 1023.3 hPa 0.0 l/m 0.0 km/h (0 Bft) N 0.00 h 0 W/m 8.8 C 10.4 C
20.09.2005 00:00 10.0 C 93 % 1023.4 hPa 0.0 l/m 0.0 km/h (0 Bft) N 0.00 h 0 W/m 8.9 C 10.0 C
20.09.2005 01:00 9.7 C 95 % 1023.4 hPa 0.0 l/m 0.0 km/h (0 Bft) N 0.00 h 0 W/m 8.9 C 9.7 C
20.09.2005 02:00 9.8 C 96 % 1023.1 hPa 0.0 l/m 0.0 km/h (0 Bft) N 0.00 h 0 W/m 9.2 C 9.8 C
20.09.2005 03:00 9.3 C 97 % 1022.5 hPa 0.0 l/m 0.0 km/h (0 Bft) N 0.00 h 0 W/m 8.8 C 9.3 C
20.09.2005 04:00 8.9 C 92 % 1022.5 hPa 0.0 l/m 0.0 km/h (0 Bft) N 0.00 h 0 W/m 7.7 C 8.9 C
20.09.2005 05:00 9.0 C 93 % 1023.4 hPa 0.0 l/m 0.0 km/h (0 Bft) N 0.00 h 0 W/m 7.9 C 9.0 C
20.09.2005 06:00 8.8 C 95 % 1023.6 hPa 0.0 l/m 0.0 km/h (0 Bft) N 0.00 h 0 W/m 7.9 C 8.8 C
20.09.2005 07:00 7.3 C 96 % 1023.8 hPa 0.0 l/m 0.0 km/h (0 Bft) N 0.00 h 24 W/m 6.7 C 7.3 C
20.09.2005 08:00 8.7 C 94 % 1023.6 hPa 0.0 l/m 0.2 km/h (0 Bft) NW 0.60 h 156 W/m 7.7 C 8.7 C
20.09.2005 09:00 9.8 C 84 % 1024.2 hPa 0.0 l/m 1.5 km/h (1 Bft) W-NW 0.00 h 191 W/m 7.1 C 9.7 C
20.09.2005 10:00 11.1 C 77 % 1024.3 hPa 0.0 l/m 0.6 km/h (0 Bft) W-NW 0.63 h 368 W/m 7.3 C 11.1 C
20.09.2005 11:00 12.7 C 64 % 1023.5 hPa 0.0 l/m 1.2 km/h (1 Bft) NW 0.77 h 476 W/m 5.9 C 12.7 C
20.09.2005 12:00 14.6 C 57 % 1022.8 hPa 0.0 l/m 2.5 km/h (1 Bft) O-SO 1.00 h 646 W/m 6.0 C 14.6 C
20.09.2005 13:00 15.9 C 53 % 1022.6 hPa 0.0 l/m 3.6 km/h (1 Bft) O-SO 0.67 h 547 W/m 6.3 C 15.9 C
20.09.2005 14:00 17.0 C 53 % 1021.9 hPa 0.0 l/m 9.2 km/h (2 Bft) O-SO 0.77 h 544 W/m 7.2 C 17.0 C
20.09.2005 15:00 18.4 C 48 % 1021.2 hPa 0.0 l/m 8.1 km/h (2 Bft) O-SO 0.93 h 533 W/m 7.1 C 18.4 C
20.09.2005 16:00 18.1 C 48 % 1021.3 hPa 0.0 l/m 5.4 km/h (1 Bft) O-SO 0.37 h 272 W/m 6.8 C 18.1 C
20.09.2005 17:00 17.4 C 52 % 1021.4 hPa 0.0 l/m 6.6 km/h (2 Bft) O-SO 0.20 h 169 W/m 7.4 C 17.4 C
20.09.2005 18:00 15.7 C 60 % 1022.0 hPa 0.0 l/m 3.1 km/h (1 Bft) O-SO 0.00 h 38 W/m 8.0 C 15.7 C
20.09.2005 19:00 14.6 C 71 % 1022.8 hPa 0.0 l/m 2.9 km/h (1 Bft) O-SO 0.00 h 7 W/m 9.4 C 14.6 C
20.09.2005 20:00 13.2 C 76 % 1023.0 hPa 0.0 l/m 4.3 km/h (1 Bft) O-SO 0.00 h 0 W/m 9.0 C 13.2 C
20.09.2005 21:00 12.1 C 81 % 1023.1 hPa 0.0 l/m 1.6 km/h (1 Bft) O-SO 0.00 h 0 W/m 8.9 C 12.1 C
20.09.2005 22:00 11.0 C 86 % 1023.3 hPa 0.0 l/m 0.8 km/h (0 Bft) O-SO 0.00 h 0 W/m 8.7 C 11.0 C
20.09.2005 23:00 9.9 C 89 % 1023.4 hPa 0.0 l/m 0.0 km/h (0 Bft) N 0.00 h 0 W/m 8.1 C 9.9 C
21.09.2005 00:00 9.1 C 92 % 1023.5 hPa 0.0 l/m 0.0 km/h (0 Bft) N 0.00 h 0 W/m 7.9 C 9.1 C
21.09.2005 01:00 8.5 C 93 % 1023.6 hPa 0.0 l/m 0.0 km/h (0 Bft) N 0.00 h 0 W/m 7.4 C 8.5 C
21.09.2005 02:00 7.7 C 94 % 1022.8 hPa 0.0 l/m 0.0 km/h (0 Bft) N 0.00 h 0 W/m 6.8 C 7.7 C
21.09.2005 03:00 7.1 C 94 % 1022.8 hPa 0.0 l/m 0.0 km/h (0 Bft) N 0.00 h 0 W/m 6.2 C 7.1 C
21.09.2005 04:00 6.5 C 97 % 1022.9 hPa 0.0 l/m 0.4 km/h (0 Bft) O-SO 0.00 h 0 W/m 6.0 C 6.4 C
21.09.2005 05:00 6.1 C 98 % 1022.9 hPa 0.0 l/m 0.0 km/h (0 Bft) N 0.00 h 0 W/m 5.7 C 6.1 C
21.09.2005 06:00 5.6 C 98 % 1022.8 hPa 0.0 l/m 0.0 km/h (0 Bft) N 0.00 h 0 W/m 5.3 C 5.6 C
21.09.2005 07:00 5.4 C 99 % 1023.0 hPa 0.0 l/m 0.0 km/h (0 Bft) N 0.13 h 33 W/m 5.2 C 5.4 C
21.09.2005 08:00 6.7 C 98 % 1022.8 hPa 0.0 l/m 0.0 km/h (0 Bft) N 1.00 h 183 W/m 6.3 C 6.7 C
21.09.2005 09:00 8.1 C 92 % 1022.0 hPa 0.0 l/m 0.2 km/h (0 Bft) W-NW 1.00 h 344 W/m 6.8 C 8.1 C
21.09.2005 10:00 11.3 C 79 % 1021.1 hPa 0.0 l/m 1.6 km/h (1 Bft) NW 1.00 h 479 W/m 7.8 C 11.3 C
21.09.2005 11:00 14.4 C 63 % 1020.6 hPa 0.0 l/m 7.3 km/h (2 Bft) O-SO 1.00 h 571 W/m 7.3 C 14.4 C
21.09.2005 12:00 16.5 C 50 % 1019.4 hPa 0.0 l/m 13.9 km/h (3 Bft) O 1.00 h 634 W/m 6.1 C 16.5 C
21.09.2005 13:00 17.8 C 43 % 1019.2 hPa 0.0 l/m 8.5 km/h (2 Bft) O 1.00 h 650 W/m 4.9 C 17.8 C
21.09.2005 14:00 18.9 C 39 % 1018.8 hPa 0.0 l/m 15.4 km/h (3 Bft) O-SO 1.00 h 629 W/m 4.6 C 18.9 C
21.09.2005 15:00 19.2 C 39 % 1018.0 hPa 0.0 l/m 18.3 km/h (3 Bft) O-SO 0.87 h 512 W/m 5.0 C 19.2 C
21.09.2005 16:00 19.0 C 40 % 1018.1 hPa 0.0 l/m 18.3 km/h (3 Bft) O-SO 0.93 h 408 W/m 4.9 C 19.0 C
21.09.2005 17:00 18.4 C 44 % 1018.1 hPa 0.0 l/m 14.7 km/h (3 Bft) O-SO 1.00 h 312 W/m 6.0 C 18.4 C
21.09.2005 18:00 17.3 C 50 % 1018.3 hPa 0.0 l/m 2.9 km/h (1 Bft) O-SO 1.00 h 132 W/m 6.9 C 17.3 C
21.09.2005 19:00 15.1 C 59 % 1019.1 hPa 0.0 l/m 0.1 km/h (0 Bft) N 0.30 h 23 W/m 7.0 C 15.1 C
21.09.2005 20:00 13.0 C 67 % 1019.9 hPa 0.0 l/m 0.1 km/h (0 Bft) N 0.00 h 0 W/m 7.0 C 13.0 C
21.09.2005 21:00 12.0 C 71 % 1020.0 hPa 0.0 l/m 0.6 km/h (0 Bft) O 0.00 h 0 W/m 6.9 C 12.0 C
21.09.2005 22:00 10.6 C 79 % 1020.2 hPa 0.0 l/m 0.2 km/h (0 Bft) N 0.00 h 0 W/m 7.1 C 10.6 C
21.09.2005 23:00 9.4 C 84 % 1020.4 hPa 0.0 l/m 0.0 km/h (0 Bft) O-SO 0.00 h 0 W/m 6.8 C 9.4 C
22.09.2005 00:00 8.9 C 86 % 1020.4 hPa 0.0 l/m 2.1 km/h (1 Bft) O 0.00 h 0 W/m 6.7 C 8.7 C
22.09.2005 01:00 8.0 C 90 % 1020.6 hPa 0.0 l/m 1.4 km/h (1 Bft) O 0.00 h 0 W/m 6.4 C 7.9 C
22.09.2005 02:00 7.8 C 89 % 1020.6 hPa 0.0 l/m 5.2 km/h (1 Bft) O-SO 0.00 h 0 W/m 6.2 C 7.2 C
22.09.2005 03:00 7.4 C 91 % 1020.6 hPa 0.0 l/m 3.4 km/h (1 Bft) O-SO 0.00 h 0 W/m 6.0 C 6.9 C
22.09.2005 04:00 6.6 C 93 % 1020.8 hPa 0.0 l/m 0.4 km/h (0 Bft) O-SO 0.00 h 0 W/m 5.6 C 6.6 C
22.09.2005 05:00 6.2 C 94 % 1020.8 hPa 0.0 l/m 0.0 km/h (0 Bft) N 0.00 h 0 W/m 5.3 C 6.2 C
22.09.2005 06:00 5.7 C 95 % 1020.9 hPa 0.0 l/m 0.0 km/h (0 Bft) N 0.00 h 0 W/m 5.0 C 5.7 C
22.09.2005 07:00 5.6 C 96 % 1020.9 hPa 0.0 l/m 0.0 km/h (0 Bft) N 0.07 h 31 W/m 5.0 C 5.6 C
22.09.2005 08:00 6.8 C 95 % 1020.7 hPa 0.0 l/m 0.0 km/h (0 Bft) N 0.93 h 152 W/m 6.1 C 6.8 C
22.09.2005 09:00 8.3 C 90 % 1020.8 hPa 0.0 l/m 0.0 km/h (0 Bft) N 1.00 h 318 W/m 6.8 C 8.3 C
22.09.2005 10:00 11.1 C 76 % 1020.5 hPa 0.0 l/m 2.4 km/h (1 Bft) O-SO 1.00 h 442 W/m 7.1 C 11.1 C
22.09.2005 11:00 13.6 C 69 % 1019.8 hPa 0.0 l/m 4.8 km/h (1 Bft) O-SO 1.00 h 552 W/m 7.9 C 13.6 C
22.09.2005 12:00 15.1 C 64 % 1019.6 hPa 0.0 l/m 2.5 km/h (1 Bft) SO 1.00 h 612 W/m 8.2 C 15.1 C
22.09.2005 13:00 16.4 C 59 % 1019.4 hPa 0.0 l/m 3.9 km/h (1 Bft) W-NW 1.00 h 628 W/m 8.4 C 16.4 C
22.09.2005 14:00 18.1 C 55 % 1018.8 hPa 0.0 l/m 3.4 km/h (1 Bft) NW 1.00 h 606 W/m 8.9 C 18.1 C
22.09.2005 15:00 19.2 C 51 % 1018.0 hPa 0.0 l/m 2.0 km/h (1 Bft) O-SO 1.00 h 540 W/m 8.7 C 19.2 C
22.09.2005 16:00 19.8 C 49 % 1017.9 hPa 0.0 l/m 0.7 km/h (0 Bft) S-SW 1.00 h 442 W/m 8.9 C 19.8 C
22.09.2005 17:00 19.5 C 51 % 1018.0 hPa 0.0 l/m 0.6 km/h (0 Bft) W 1.00 h 315 W/m 9.0 C 19.5 C
22.09.2005 18:00 18.0 C 56 % 1018.2 hPa 0.0 l/m 1.3 km/h (1 Bft) W-NW 1.00 h 149 W/m 9.2 C 18.0 C
22.09.2005 19:00 14.8 C 74 % 1018.6 hPa 0.0 l/m 0.8 km/h (0 Bft) W-NW 0.20 h 23 W/m 10.0 C 14.8 C
22.09.2005 20:00 12.4 C 90 % 1020.0 hPa 0.0 l/m 0.7 km/h (0 Bft) W-NW 0.00 h 0 W/m 10.8 C 12.4 C
22.09.2005 21:00 10.8 C 95 % 1020.2 hPa 0.0 l/m 0.0 km/h (0 Bft) N 0.00 h 0 W/m 10.0 C 10.8 C
22.09.2005 22:00 9.9 C 97 % 1020.3 hPa 0.0 l/m 0.6 km/h (0 Bft) W-NW 0.00 h 0 W/m 9.4 C 9.8 C
22.09.2005 23:00 9.4 C 99 % 1020.4 hPa 0.0 l/m 0.7 km/h (0 Bft) W-NW 0.00 h 0 W/m 9.2 C 9.4 C
23.09.2005 00:00 8.7 C 99 % 1020.5 hPa 0.0 l/m 0.3 km/h (0 Bft) W-NW 0.00 h 0 W/m 8.6 C 8.7 C
23.09.2005 01:00 8.6 C 100 % 1020.5 hPa 0.0 l/m 0.4 km/h (0 Bft) W-NW 0.00 h 0 W/m 8.6 C 8.6 C
23.09.2005 02:00 8.3 C 96 % 1020.5 hPa 0.0 l/m 0.2 km/h (0 Bft) SO 0.00 h 0 W/m 7.7 C 8.3 C
23.09.2005 03:00 8.0 C 96 % 1020.6 hPa 0.0 l/m 0.3 km/h (0 Bft) SO 0.00 h 0 W/m 7.4 C 8.0 C
23.09.2005 04:00 8.0 C 97 % 1020.1 hPa 0.0 l/m 0.0 km/h (0 Bft) N 0.00 h 0 W/m 7.6 C 8.0 C
23.09.2005 05:00 8.5 C 98 % 1019.6 hPa 0.0 l/m 0.1 km/h (0 Bft) SO 0.00 h 0 W/m 8.2 C 8.5 C
23.09.2005 06:00 8.3 C 99 % 1020.0 hPa 0.0 l/m 1.1 km/h (0 Bft) O-SO 0.00 h 0 W/m 8.1 C 8.2 C
23.09.2005 07:00 8.1 C 99 % 1020.5 hPa 0.0 l/m 0.3 km/h (0 Bft) O-SO 0.00 h 13 W/m 8.0 C 8.1 C
23.09.2005 08:00 8.7 C 100 % 1020.5 hPa 0.0 l/m 0.4 km/h (0 Bft) O-SO 0.00 h 47 W/m 8.7 C 8.7 C
23.09.2005 09:00 9.7 C 98 % 1020.3 hPa 0.0 l/m 0.1 km/h (0 Bft) O-SO 0.00 h 87 W/m 9.4 C 9.7 C
23.09.2005 10:00 10.7 C 96 % 1020.2 hPa 0.0 l/m 0.0 km/h (0 Bft) N 0.00 h 129 W/m 10.0 C 10.7 C
23.09.2005 11:00 11.9 C 94 % 1019.9 hPa 0.0 l/m 0.2 km/h (0 Bft) O-SO 0.00 h 242 W/m 10.9 C 11.9 C
23.09.2005 12:00 14.7 C 89 % 1018.6 hPa 0.0 l/m 0.8 km/h (0 Bft) O-SO 0.93 h 584 W/m 12.9 C 14.7 C
23.09.2005 13:00 17.7 C 82 % 1017.6 hPa 0.0 l/m 3.4 km/h (1 Bft) O-SO 1.00 h 626 W/m 14.4 C 17.7 C
23.09.2005 14:00 20.5 C 58 % 1016.4 hPa 0.0 l/m 2.1 km/h (1 Bft) O-SO 1.00 h 587 W/m 12.0 C 20.5 C
23.09.2005 15:00 22.0 C 52 % 1015.6 hPa 0.0 l/m 3.2 km/h (1 Bft) O-SO 1.00 h 519 W/m 11.8 C 22.0 C
23.09.2005 16:00 22.4 C 50 % 1015.5 hPa 0.0 l/m 1.0 km/h (0 Bft) O-SO 1.00 h 409 W/m 11.5 C 22.4 C
23.09.2005 17:00 21.9 C 52 % 1014.7 hPa 0.0 l/m 0.4 km/h (0 Bft) W-NW 1.00 h 258 W/m 11.6 C 21.9 C
23.09.2005 18:00 20.3 C 61 % 1015.7 hPa 0.0 l/m 0.1 km/h (0 Bft) N 0.60 h 86 W/m 12.5 C 20.3 C
23.09.2005 19:00 17.2 C 78 % 1016.2 hPa 0.0 l/m 4.9 km/h (1 Bft) O-SO 0.00 h 11 W/m 13.3 C 17.2 C
23.09.2005 20:00 14.7 C 87 % 1017.1 hPa 0.0 l/m 5.1 km/h (1 Bft) O-SO 0.00 h 0 W/m 12.6 C 14.7 C
23.09.2005 21:00 13.5 C 94 % 1017.7 hPa 0.0 l/m 2.9 km/h (1 Bft) O-SO 0.00 h 0 W/m 12.4 C 13.5 C
23.09.2005 22:00 12.3 C 97 % 1018.0 hPa 0.0 l/m 0.9 km/h (0 Bft) O-SO 0.00 h 0 W/m 11.7 C 12.3 C
23.09.2005 23:00 11.5 C 99 % 1019.0 hPa 0.0 l/m 0.3 km/h (0 Bft) O-SO 0.00 h 0 W/m 11.3 C 11.5 C
24.09.2005 00:00 11.2 C 100 % 1019.1 hPa 0.0 l/m 0.0 km/h (0 Bft) N 0.00 h 0 W/m 11.1 C 11.2 C
24.09.2005 01:00 10.4 C 100 % 1019.2 hPa 0.0 l/m 0.3 km/h (0 Bft) O-SO 0.00 h 0 W/m 10.4 C 10.4 C
24.09.2005 02:00 10.1 C 100 % 1019.2 hPa 0.0 l/m 0.7 km/h (0 Bft) O-SO 0.00 h 0 W/m 10.1 C 10.1 C
24.09.2005 03:00 10.5 C 100 % 1019.4 hPa 0.0 l/m 0.0 km/h (0 Bft) N 0.00 h 0 W/m 10.5 C 10.5 C
24.09.2005 04:00 10.6 C 100 % 1020.1 hPa 0.0 l/m 0.2 km/h (0 Bft) O-SO 0.00 h 0 W/m 10.6 C 10.6 C
24.09.2005 05:00 10.8 C 100 % 1019.8 hPa 0.0 l/m 0.0 km/h (0 Bft) N 0.00 h 0 W/m 10.8 C 10.8 C
24.09.2005 06:00 11.1 C 100 % 1020.1 hPa 0.0 l/m 0.0 km/h (0 Bft) N 0.00 h 0 W/m 11.1 C 11.1 C
24.09.2005 07:00 11.1 C 100 % 1020.1 hPa 0.0 l/m 0.0 km/h (0 Bft) N 0.00 h 11 W/m 11.1 C 11.1 C
24.09.2005 08:00 11.1 C 100 % 1020.1 hPa 0.3 l/m 0.3 km/h (0 Bft) O-SO 0.00 h 52 W/m 11.1 C 11.1 C
24.09.2005 09:00 11.6 C 99 % 1020.1 hPa 0.0 l/m 0.3 km/h (0 Bft) O-SO 0.03 h 142 W/m 11.4 C 11.6 C
24.09.2005 10:00 12.7 C 94 % 1019.9 hPa 0.0 l/m 0.9 km/h (0 Bft) O-SO 0.40 h 301 W/m 11.7 C 12.7 C
24.09.2005 11:00 14.5 C 87 % 1019.7 hPa 0.0 l/m 0.6 km/h (0 Bft) O-SO 0.97 h 511 W/m 12.3 C 14.5 C
24.09.2005 12:00 17.4 C 75 % 1018.7 hPa 0.0 l/m 1.4 km/h (1 Bft) O-SO 1.00 h 601 W/m 12.9 C 17.4 C
24.09.2005 13:00 19.6 C 64 % 1017.7 hPa 0.0 l/m 1.1 km/h (1 Bft) O-NO 1.00 h 607 W/m 12.7 C 19.6 C
24.09.2005 14:00 21.7 C 55 % 1016.7 hPa 0.0 l/m 1.3 km/h (1 Bft) O-SO 1.00 h 575 W/m 12.2 C 21.7 C
24.09.2005 15:00 23.1 C 46 % 1016.3 hPa 0.0 l/m 1.7 km/h (1 Bft) W 1.00 h 526 W/m 10.7 C 23.1 C
24.09.2005 16:00 23.1 C 43 % 1015.5 hPa 0.0 l/m 0.8 km/h (0 Bft) W 0.63 h 359 W/m 9.7 C 23.1 C
24.09.2005 17:00 21.0 C 50 % 1015.7 hPa 0.0 l/m 2.9 km/h (1 Bft) NW 0.40 h 179 W/m 10.2 C 21.0 C
24.09.2005 18:00 20.5 C 55 % 1015.8 hPa 0.0 l/m 0.9 km/h (0 Bft) O 1.00 h 142 W/m 11.1 C 20.5 C
24.09.2005 19:00 17.0 C 75 % 1016.2 hPa 0.0 l/m 4.4 km/h (1 Bft) O-SO 0.20 h 19 W/m 12.4 C 17.0 C
24.09.2005 20:00 14.5 C 86 % 1016.6 hPa 0.0 l/m 3.1 km/h (1 Bft) O-SO 0.00 h 0 W/m 12.3 C 14.5 C
24.09.2005 21:00 13.2 C 90 % 1016.7 hPa 0.0 l/m 0.2 km/h (0 Bft) O-SO 0.00 h 0 W/m 11.6 C 13.2 C
24.09.2005 22:00 12.3 C 94 % 1016.9 hPa 0.0 l/m 0.1 km/h (0 Bft) N 0.00 h 0 W/m 11.4 C 12.3 C
24.09.2005 23:00 11.9 C 97 % 1016.9 hPa 0.0 l/m 0.4 km/h (0 Bft) O-SO 0.00 h 0 W/m 11.4 C 11.9 C
25.09.2005 00:00 11.5 C 98 % 1017.0 hPa 0.0 l/m 0.0 km/h (0 Bft) N 0.00 h 0 W/m 11.2 C 11.5 C
25.09.2005 01:00 10.6 C 98 % 1017.1 hPa 0.0 l/m 0.3 km/h (0 Bft) O-SO 0.00 h 0 W/m 10.3 C 10.6 C
25.09.2005 02:00 10.0 C 99 % 1017.2 hPa 0.0 l/m 0.3 km/h (0 Bft) O-SO 0.00 h 0 W/m 9.9 C 10.0 C
25.09.2005 03:00 9.8 C 100 % 1016.6 hPa 0.0 l/m 0.0 km/h (0 Bft) N 0.00 h 0 W/m 9.8 C 9.8 C
25.09.2005 04:00 9.8 C 100 % 1016.2 hPa 0.0 l/m 0.2 km/h (0 Bft) O-SO 0.00 h 0 W/m 9.7 C 9.8 C
25.09.2005 05:00 9.8 C 99 % 1016.2 hPa 0.0 l/m 1.4 km/h (1 Bft) O-SO 0.00 h 0 W/m 9.6 C 9.7 C
25.09.2005 06:00 10.6 C 97 % 1016.0 hPa 0.0 l/m 1.3 km/h (1 Bft) O-SO 0.00 h 0 W/m 10.2 C 10.6 C
25.09.2005 07:00 11.1 C 97 % 1016.5 hPa 0.0 l/m 0.0 km/h (0 Bft) N 0.00 h 12 W/m 10.7 C 11.1 C
25.09.2005 08:00 11.4 C 94 % 1017.0 hPa 0.0 l/m 0.0 km/h (0 Bft) N 0.00 h 59 W/m 10.6 C 11.4 C
25.09.2005 09:00 12.2 C 91 % 1016.9 hPa 0.0 l/m 0.0 km/h (0 Bft) N 0.00 h 102 W/m 10.8 C 12.2 C
25.09.2005 10:00 13.3 C 88 % 1016.7 hPa 0.0 l/m 0.0 km/h (0 Bft) N 0.00 h 213 W/m 11.3 C 13.3 C
25.09.2005 11:00 15.2 C 81 % 1016.0 hPa 0.0 l/m 1.3 km/h (1 Bft) O-SO 0.83 h 510 W/m 11.9 C 15.2 C
25.09.2005 12:00 17.6 C 74 % 1015.1 hPa 0.0 l/m 3.1 km/h (1 Bft) O-SO 0.77 h 542 W/m 12.8 C 17.6 C
25.09.2005 13:00 20.1 C 64 % 1014.5 hPa 0.0 l/m 3.4 km/h (1 Bft) O-SO 1.00 h 618 W/m 13.1 C 20.1 C
25.09.2005 14:00 22.0 C 55 % 1013.5 hPa 0.0 l/m 3.6 km/h (1 Bft) O-SO 1.00 h 591 W/m 12.3 C 22.0 C
25.09.2005 15:00 23.7 C 40 % 1013.0 hPa 0.0 l/m 4.5 km/h (1 Bft) W-NW 1.00 h 531 W/m 9.1 C 23.7 C
25.09.2005 16:00 23.9 C 41 % 1012.2 hPa 0.0 l/m 4.4 km/h (1 Bft) W-NW 1.00 h 411 W/m 9.7 C 23.9 C
25.09.2005 17:00 22.8 C 48 % 1012.4 hPa 0.0 l/m 3.3 km/h (1 Bft) W 1.00 h 262 W/m 11.2 C 22.8 C
25.09.2005 18:00 20.6 C 57 % 1012.7 hPa 0.0 l/m 0.5 km/h (0 Bft) W-NW 0.38 h 61 W/m 11.7 C 20.6 C
25.09.2005 19:00 17.4 C 74 % 1014.1 hPa 0.0 l/m 6.0 km/h (2 Bft) O 0.00 h 8 W/m 12.7 C 17.4 C
25.09.2005 20:00 16.1 C 82 % 1014.8 hPa 0.0 l/m 5.4 km/h (1 Bft) O-SO 0.00 h 0 W/m 13.1 C 16.1 C
25.09.2005 21:00 15.4 C 84 % 1015.4 hPa 0.0 l/m 1.7 km/h (1 Bft) O-SO 0.00 h 0 W/m 12.7 C 15.4 C
25.09.2005 22:00 15.1 C 89 % 1016.2 hPa 0.0 l/m 1.4 km/h (1 Bft) O-SO 0.00 h 0 W/m 13.2 C 15.1 C
25.09.2005 23:00 14.5 C 89 % 1016.6 hPa 0.0 l/m 0.0 km/h (0 Bft) N 0.00 h 0 W/m 12.7 C 14.5 C
Min-Datum _ 21.09.05 21.09.05 25.09.05 - 19.09.05 - - - 19.09.05 21.09.05
_ Min-Zeit 07:24 14:24 15:50 - 00:08 - - - 00:08 07:24
Minimum _ 5.2 C 35 % 1012.2 hPa - 0.0 km/h (0 Bft) - - - 2.5 C 5.2 C
Max-Datum _ 25.09.05 23.09.05 20.09.05 24.09.05 19.09.05 - 25.09.05 19.09.05 23.09.05 25.09.05
_ Max-Zeit 15:50 00:10 09:14 08:12 13:22 - 18:05 13:08 13:14 15:50
Maximum _ 24.2 C 100 % 1024.5 hPa 0.3 l/m 31.1 km/h
O-SO (5 Bft)
- 0.08 h 763 W/m 15.4 C 24.2 C
Durchschnitt _ 12.8 C 79 % 1019.7 hPa #0.3 l/m 2.1 km/h (1 Bft) O-SO #49:43 h 295 W/m 8.6 C 12.8 C

Durchschnitt Minimum Temp.12.2 C
Durchschnitt Maximum Temp.13.3 C
© Kaiko 2005